sensor_id;sensor_type;location;lat;lon;timestamp;pressure;altitude;pressure_sealevel;temperature;humidity
77333;BME280;66408;51.326;12.070;2023-04-29T00:01:10;100154.38;;;12.26;83.96
77333;BME280;66408;51.326;12.070;2023-04-29T00:03:37;100146.69;;;12.28;83.32
77333;BME280;66408;51.326;12.070;2023-04-29T00:06:04;100144.78;;;12.28;83.04
77333;BME280;66408;51.326;12.070;2023-04-29T00:08:31;100144.13;;;12.31;83.20
77333;BME280;66408;51.326;12.070;2023-04-29T00:10:57;100134.66;;;12.37;83.15
77333;BME280;66408;51.326;12.070;2023-04-29T00:13:24;100145.25;;;12.39;83.25
77333;BME280;66408;51.326;12.070;2023-04-29T00:15:52;100144.13;;;12.40;82.47
77333;BME280;66408;51.326;12.070;2023-04-29T00:18:19;100136.28;;;12.38;82.68
77333;BME280;66408;51.326;12.070;2023-04-29T00:20:46;100135.16;;;12.39;82.77
77333;BME280;66408;51.326;12.070;2023-04-29T00:23:12;100131.00;;;12.42;82.59
77333;BME280;66408;51.326;12.070;2023-04-29T00:25:39;100131.00;;;12.42;82.41
77333;BME280;66408;51.326;12.070;2023-04-29T00:28:05;100128.41;;;12.37;82.95
77333;BME280;66408;51.326;12.070;2023-04-29T00:30:32;100127.47;;;12.41;82.30
77333;BME280;66408;51.326;12.070;2023-04-29T00:32:59;100129.38;;;12.41;82.08
77333;BME280;66408;51.326;12.070;2023-04-29T00:35:26;100125.06;;;12.31;82.82
77333;BME280;66408;51.326;12.070;2023-04-29T00:37:53;100128.91;;;12.39;82.93
77333;BME280;66408;51.326;12.070;2023-04-29T00:40:19;100120.72;;;12.39;82.73
77333;BME280;66408;51.326;12.070;2023-04-29T00:42:46;100125.53;;;12.42;81.85
77333;BME280;66408;51.326;12.070;2023-04-29T00:45:13;100131.00;;;12.42;82.05
77333;BME280;66408;51.326;12.070;2023-04-29T00:47:40;100126.66;;;12.41;82.13
77333;BME280;66408;51.326;12.070;2023-04-29T00:50:07;100134.34;;;12.39;82.16
77333;BME280;66408;51.326;12.070;2023-04-29T00:52:36;100129.38;;;12.41;82.12
77333;BME280;66408;51.326;12.070;2023-04-29T00:55:03;100144.00;;;12.36;82.24
77333;BME280;66408;51.326;12.070;2023-04-29T00:57:31;100132.44;;;12.39;81.85
77333;BME280;66408;51.326;12.070;2023-04-29T00:59:59;100135.63;;;12.41;82.17
77333;BME280;66408;51.326;12.070;2023-04-29T01:02:27;100150.72;;;12.39;81.83
77333;BME280;66408;51.326;12.070;2023-04-29T01:04:54;100139.97;;;12.34;82.12
77333;BME280;66408;51.326;12.070;2023-04-29T01:10:14;100152.50;;;12.35;82.04
77333;BME280;66408;51.326;12.070;2023-04-29T01:12:45;100153.28;;;12.35;82.01
77333;BME280;66408;51.326;12.070;2023-04-29T01:15:25;100154.41;;;12.34;81.78
77333;BME280;66408;51.326;12.070;2023-04-29T01:18:16;100157.47;;;12.33;81.88
77333;BME280;66408;51.326;12.070;2023-04-29T01:20:45;100152.16;;;12.28;81.93
77333;BME280;66408;51.326;12.070;2023-04-29T01:27:09;100159.69;;;12.22;81.93
77333;BME280;66408;51.326;12.070;2023-04-29T01:33:05;100152.94;;;12.19;81.94
77333;BME280;66408;51.326;12.070;2023-04-29T01:40:42;100160.50;;;12.22;81.95
77333;BME280;66408;51.326;12.070;2023-04-29T01:43:13;100159.69;;;12.22;82.27
77333;BME280;66408;51.326;12.070;2023-04-29T01:45:41;100159.84;;;12.26;81.93
77333;BME280;66408;51.326;12.070;2023-04-29T01:48:09;100156.00;;;12.27;82.05
77333;BME280;66408;51.326;12.070;2023-04-29T01:50:36;100161.28;;;12.23;82.21
77333;BME280;66408;51.326;12.070;2023-04-29T01:53:03;100159.03;;;12.25;82.39
77333;BME280;66408;51.326;12.070;2023-04-29T01:55:29;100160.31;;;12.19;82.58
77333;BME280;66408;51.326;12.070;2023-04-29T01:57:56;100171.53;;;12.26;82.46
77333;BME280;66408;51.326;12.070;2023-04-29T02:00:23;100164.16;;;12.27;82.46
77333;BME280;66408;51.326;12.070;2023-04-29T02:02:49;100158.41;;;12.28;82.58
77333;BME280;66408;51.326;12.070;2023-04-29T02:05:16;100166.94;;;12.35;82.34
77333;BME280;66408;51.326;12.070;2023-04-29T02:07:42;100166.25;;;12.30;82.70
77333;BME280;66408;51.326;12.070;2023-04-29T02:10:10;100166.94;;;12.35;82.25
77333;BME280;66408;51.326;12.070;2023-04-29T02:12:37;100172.69;;;12.34;82.41
77333;BME280;66408;51.326;12.070;2023-04-29T02:15:04;100169.66;;;12.35;82.20
77333;BME280;66408;51.326;12.070;2023-04-29T02:17:32;100166.94;;;12.35;82.16
77333;BME280;66408;51.326;12.070;2023-04-29T02:19:59;100178.28;;;12.37;82.46
77333;BME280;66408;51.326;12.070;2023-04-29T02:22:26;100172.53;;;12.39;82.25
77333;BME280;66408;51.326;12.070;2023-04-29T02:24:55;100173.00;;;12.41;82.20
77333;BME280;66408;51.326;12.070;2023-04-29T02:27:22;100166.13;;;12.43;81.64
77333;BME280;66408;51.326;12.070;2023-04-29T02:29:49;100171.41;;;12.40;81.94
77333;BME280;66408;51.326;12.070;2023-04-29T02:32:17;100170.09;;;12.37;82.25
77333;BME280;66408;51.326;12.070;2023-04-29T02:34:46;100168.84;;;12.35;82.32
77333;BME280;66408;51.326;12.070;2023-04-29T02:37:12;100178.47;;;12.41;82.16
77333;BME280;66408;51.326;12.070;2023-04-29T02:39:39;100182.94;;;12.37;82.31
77333;BME280;66408;51.326;12.070;2023-04-29T02:42:06;100184.09;;;12.36;82.69
77333;BME280;66408;51.326;12.070;2023-04-29T02:44:33;100176.72;;;12.36;82.41
77333;BME280;66408;51.326;12.070;2023-04-29T02:46:59;100182.00;;;12.33;82.24
77333;BME280;66408;51.326;12.070;2023-04-29T02:49:26;100179.09;;;12.38;81.72
77333;BME280;66408;51.326;12.070;2023-04-29T02:51:53;100178.94;;;12.34;82.18
77333;BME280;66408;51.326;12.070;2023-04-29T02:54:20;100175.41;;;12.34;82.47
77333;BME280;66408;51.326;12.070;2023-04-29T02:56:46;100182.00;;;12.33;82.11
77333;BME280;66408;51.326;12.070;2023-04-29T02:59:13;100176.69;;;12.28;82.61
77333;BME280;66408;51.326;12.070;2023-04-29T03:01:40;100181.19;;;12.32;82.15
77333;BME280;66408;51.326;12.070;2023-04-29T03:04:06;100186.66;;;12.32;82.01
77333;BME280;66408;51.326;12.070;2023-04-29T03:06:34;100180.06;;;12.33;82.22
77333;BME280;66408;51.326;12.070;2023-04-29T03:09:01;100183.59;;;12.34;81.89
77333;BME280;66408;51.326;12.070;2023-04-29T03:11:27;100185.84;;;12.32;82.44
77333;BME280;66408;51.326;12.070;2023-04-29T03:13:54;100167.72;;;12.36;82.32
77333;BME280;66408;51.326;12.070;2023-04-29T03:16:20;100180.22;;;12.37;81.90
77333;BME280;66408;51.326;12.070;2023-04-29T03:18:47;100181.50;;;12.39;82.18
77333;BME280;66408;51.326;12.070;2023-04-29T03:21:14;100177.84;;;12.35;82.08
77333;BME280;66408;51.326;12.070;2023-04-29T03:23:42;100173.19;;;12.36;82.02
77333;BME280;66408;51.326;12.070;2023-04-29T03:26:10;100175.25;;;12.39;82.00
77333;BME280;66408;51.326;12.070;2023-04-29T03:28:37;100179.25;;;12.41;81.90
77333;BME280;66408;51.326;12.070;2023-04-29T03:31:03;100183.13;;;12.40;82.12
77333;BME280;66408;51.326;12.070;2023-04-29T03:33:30;100184.91;;;12.36;82.24
77333;BME280;66408;51.326;12.070;2023-04-29T03:35:57;100175.75;;;12.41;82.03
77333;BME280;66408;51.326;12.070;2023-04-29T03:38:23;100188.25;;;12.42;82.03
77333;BME280;66408;51.326;12.070;2023-04-29T03:40:51;100172.38;;;12.35;82.11
77333;BME280;66408;51.326;12.070;2023-04-29T03:43:17;100183.91;;;12.32;82.23
77333;BME280;66408;51.326;12.070;2023-04-29T03:45:44;100177.50;;;12.37;81.93
77333;BME280;66408;51.326;12.070;2023-04-29T03:48:11;100183.44;;;12.39;81.64
77333;BME280;66408;51.326;12.070;2023-04-29T03:50:38;100184.09;;;12.36;81.70
77333;BME280;66408;51.326;12.070;2023-04-29T03:53:04;100187.28;;;12.38;81.79
77333;BME280;66408;51.326;12.070;2023-04-29T03:55:31;100177.84;;;12.35;81.72
77333;BME280;66408;51.326;12.070;2023-04-29T03:57:57;100190.66;;;12.35;81.95
77333;BME280;66408;51.326;12.070;2023-04-29T04:00:24;100186.16;;;12.39;81.42
77333;BME280;66408;51.326;12.070;2023-04-29T04:02:52;100183.13;;;12.40;81.57
77333;BME280;66408;51.326;12.070;2023-04-29T04:05:19;100195.00;;;12.36;81.66
77333;BME280;66408;51.326;12.070;2023-04-29T04:07:46;100202.03;;;12.37;81.49
77333;BME280;66408;51.326;12.070;2023-04-29T04:10:13;100198.19;;;12.29;82.04
77333;BME280;66408;51.326;12.070;2023-04-29T04:12:40;100199.31;;;12.37;81.60
77333;BME280;66408;51.326;12.070;2023-04-29T04:15:09;100198.84;;;12.35;81.97
77333;BME280;66408;51.326;12.070;2023-04-29T04:17:36;100195.81;;;12.36;81.42
77333;BME280;66408;51.326;12.070;2023-04-29T04:20:03;100199.16;;;12.33;82.27
77333;BME280;66408;51.326;12.070;2023-04-29T04:22:30;100206.22;;;12.34;81.83
77333;BME280;66408;51.326;12.070;2023-04-29T04:24:57;100208.28;;;12.37;82.16
77333;BME280;66408;51.326;12.070;2023-04-29T04:27:24;100204.75;;;12.37;82.05
77333;BME280;66408;51.326;12.070;2023-04-29T04:29:54;100211.50;;;12.39;81.90
77333;BME280;66408;51.326;12.070;2023-04-29T04:32:21;100218.06;;;12.38;82.20
77333;BME280;66408;51.326;12.070;2023-04-29T04:34:49;100219.53;;;12.36;82.43
77333;BME280;66408;51.326;12.070;2023-04-29T04:37:16;100213.91;;;12.41;82.01
77333;BME280;66408;51.326;12.070;2023-04-29T04:39:43;100214.41;;;12.43;82.41
77333;BME280;66408;51.326;12.070;2023-04-29T04:42:09;100227.53;;;12.41;82.39
77333;BME280;66408;51.326;12.070;2023-04-29T04:44:36;100219.84;;;12.43;82.39
77333;BME280;66408;51.326;12.070;2023-04-29T04:47:03;100225.00;;;12.44;82.63
77333;BME280;66408;51.326;12.070;2023-04-29T04:49:31;100221.78;;;12.51;82.30
77333;BME280;66408;51.326;12.070;2023-04-29T04:51:58;100218.25;;;12.50;82.49
77333;BME280;66408;51.326;12.070;2023-04-29T04:54:24;100218.09;;;12.55;82.21
77333;BME280;66408;51.326;12.070;2023-04-29T04:56:51;100217.78;;;12.57;81.99
77333;BME280;66408;51.326;12.070;2023-04-29T04:59:18;100219.22;;;12.63;81.89
77333;BME280;66408;51.326;12.070;2023-04-29T05:01:45;100226.47;;;12.68;81.89
77333;BME280;66408;51.326;12.070;2023-04-29T05:04:11;100227.44;;;12.72;81.66
77333;BME280;66408;51.326;12.070;2023-04-29T05:06:38;100230.63;;;12.65;81.91
77333;BME280;66408;51.326;12.070;2023-04-29T05:09:05;100228.69;;;12.74;81.88
77333;BME280;66408;51.326;12.070;2023-04-29T05:11:32;100233.19;;;12.79;81.38
77333;BME280;66408;51.326;12.070;2023-04-29T05:13:59;100234.97;;;12.83;81.05
77333;BME280;66408;51.326;12.070;2023-04-29T05:16:26;100229.22;;;12.85;81.17
77333;BME280;66408;51.326;12.070;2023-04-29T05:18:53;100230.00;;;12.85;81.33
77333;BME280;66408;51.326;12.070;2023-04-29T05:21:20;100231.75;;;12.90;81.40
77333;BME280;66408;51.326;12.070;2023-04-29T05:23:46;100243.34;;;12.95;81.02
77333;BME280;66408;51.326;12.070;2023-04-29T05:26:13;100231.91;;;13.02;80.55
77333;BME280;66408;51.326;12.070;2023-04-29T05:28:39;100239.94;;;13.07;80.28
77333;BME280;66408;51.326;12.070;2023-04-29T05:31:06;100248.16;;;13.16;80.58
77333;BME280;66408;51.326;12.070;2023-04-29T05:33:33;100240.25;;;13.23;80.54
77333;BME280;66408;51.326;12.070;2023-04-29T05:36:00;100247.66;;;13.31;80.08
77333;BME280;66408;51.326;12.070;2023-04-29T05:38:27;100245.72;;;13.32;80.11
77333;BME280;66408;51.326;12.070;2023-04-29T05:40:55;100253.28;;;13.35;79.96
77333;BME280;66408;51.326;12.070;2023-04-29T05:43:22;100255.50;;;13.41;79.78
77333;BME280;66408;51.326;12.070;2023-04-29T05:45:49;100267.09;;;13.47;80.14
77333;BME280;66408;51.326;12.070;2023-04-29T05:48:15;100260.34;;;13.44;79.87
77333;BME280;66408;51.326;12.070;2023-04-29T05:50:42;100271.72;;;13.55;79.43
77333;BME280;66408;51.326;12.070;2023-04-29T05:53:09;100273.31;;;13.56;79.27
77333;BME280;66408;51.326;12.070;2023-04-29T05:55:36;100266.06;;;13.60;79.40
77333;BME280;66408;51.326;12.070;2023-04-29T05:58:03;100275.88;;;13.61;78.78
77333;BME280;66408;51.326;12.070;2023-04-29T06:00:30;100280.41;;;13.57;78.60
77333;BME280;66408;51.326;12.070;2023-04-29T06:02:57;100291.47;;;13.52;78.46
77333;BME280;66408;51.326;12.070;2023-04-29T06:05:25;100295.00;;;13.52;78.22
77333;BME280;66408;51.326;12.070;2023-04-29T06:07:53;100297.25;;;13.50;78.35
77333;BME280;66408;51.326;12.070;2023-04-29T06:10:20;100293.41;;;13.51;78.23
77333;BME280;66408;51.326;12.070;2023-04-29T06:12:46;100291.66;;;13.55;77.72
77333;BME280;66408;51.326;12.070;2023-04-29T06:15:16;100291.16;;;13.53;77.77
77333;BME280;66408;51.326;12.070;2023-04-29T06:17:43;100301.44;;;13.56;78.06
77333;BME280;66408;51.326;12.070;2023-04-29T06:20:10;100302.56;;;13.55;77.91
77333;BME280;66408;51.326;12.070;2023-04-29T06:22:37;100305.31;;;13.55;77.83
77333;BME280;66408;51.326;12.070;2023-04-29T06:25:04;100313.50;;;13.55;77.55
77333;BME280;66408;51.326;12.070;2023-04-29T06:27:31;100309.00;;;13.51;77.89
77333;BME280;66408;51.326;12.070;2023-04-29T06:29:58;100311.88;;;13.54;77.35
77333;BME280;66408;51.326;12.070;2023-04-29T06:32:25;100322.00;;;13.54;77.78
77333;BME280;66408;51.326;12.070;2023-04-29T06:34:51;100328.78;;;13.56;76.90
77333;BME280;66408;51.326;12.070;2023-04-29T06:37:18;100320.56;;;13.56;77.28
77333;BME280;66408;51.326;12.070;2023-04-29T06:39:44;100331.81;;;13.55;77.64
77333;BME280;66408;51.326;12.070;2023-04-29T06:42:11;100331.50;;;13.56;77.09
77333;BME280;66408;51.326;12.070;2023-04-29T06:44:38;100333.91;;;13.58;77.72
77333;BME280;66408;51.326;12.070;2023-04-29T06:47:06;100343.38;;;13.60;77.30
77333;BME280;66408;51.326;12.070;2023-04-29T06:49:33;100340.47;;;13.65;77.30
77333;BME280;66408;51.326;12.070;2023-04-29T06:52:00;100349.66;;;13.70;77.44
77333;BME280;66408;51.326;12.070;2023-04-29T06:54:27;100339.53;;;13.70;76.88
77333;BME280;66408;51.326;12.070;2023-04-29T06:56:54;100342.38;;;13.74;76.92
77333;BME280;66408;51.326;12.070;2023-04-29T06:59:21;100354.78;;;13.80;77.15
77333;BME280;66408;51.326;12.070;2023-04-29T07:01:48;100351.41;;;13.83;76.76
77333;BME280;66408;51.326;12.070;2023-04-29T07:04:17;100352.81;;;13.89;76.99
77333;BME280;66408;51.326;12.070;2023-04-29T07:06:44;100355.88;;;13.96;77.13
77333;BME280;66408;51.326;12.070;2023-04-29T07:09:13;100350.69;;;14.03;76.59
77333;BME280;66408;51.326;12.070;2023-04-29T07:11:40;100367.25;;;14.07;75.98
77333;BME280;66408;51.326;12.070;2023-04-29T07:14:07;100359.19;;;14.10;76.48
77333;BME280;66408;51.326;12.070;2023-04-29T07:16:34;100369.50;;;14.05;75.86
77333;BME280;66408;51.326;12.070;2023-04-29T07:19:00;100365.50;;;14.02;76.38
77333;BME280;66408;51.326;12.070;2023-04-29T07:21:28;100373.88;;;13.97;76.34
77333;BME280;66408;51.326;12.070;2023-04-29T07:23:56;100373.41;;;13.78;75.79
77333;BME280;66408;51.326;12.070;2023-04-29T07:26:24;100381.00;;;13.72;75.24
77333;BME280;66408;51.326;12.070;2023-04-29T07:28:51;100390.31;;;13.62;75.34
77333;BME280;66408;51.326;12.070;2023-04-29T07:31:17;100387.59;;;13.54;76.24
77333;BME280;66408;51.326;12.070;2023-04-29T07:33:44;100390.16;;;13.50;76.12
77333;BME280;66408;51.326;12.070;2023-04-29T07:36:14;100396.56;;;13.37;75.84
77333;BME280;66408;51.326;12.070;2023-04-29T07:38:40;100397.53;;;13.24;76.34
77333;BME280;66408;51.326;12.070;2023-04-29T07:41:07;100409.72;;;13.18;76.66
77333;BME280;66408;51.326;12.070;2023-04-29T07:43:33;100407.09;;;13.13;77.52
77333;BME280;66408;51.326;12.070;2023-04-29T07:46:00;100409.84;;;13.13;77.34
77333;BME280;66408;51.326;12.070;2023-04-29T07:48:27;100411.94;;;13.07;77.83
77333;BME280;66408;51.326;12.070;2023-04-29T07:50:53;100416.75;;;13.10;77.28
77333;BME280;66408;51.326;12.070;2023-04-29T07:53:20;100419.50;;;13.10;77.67
77333;BME280;66408;51.326;12.070;2023-04-29T07:55:47;100426.69;;;13.06;77.55
77333;BME280;66408;51.326;12.070;2023-04-29T07:58:14;100434.88;;;13.06;77.42
77333;BME280;66408;51.326;12.070;2023-04-29T08:00:40;100440.53;;;13.10;77.81
77333;BME280;66408;51.326;12.070;2023-04-29T08:03:07;100442.44;;;13.09;77.46
77333;BME280;66408;51.326;12.070;2023-04-29T08:05:34;100443.09;;;13.06;77.73
77333;BME280;66408;51.326;12.070;2023-04-29T08:08:01;100445.34;;;13.13;76.75
77333;BME280;66408;51.326;12.070;2023-04-29T08:10:28;100446.03;;;13.18;76.93
77333;BME280;66408;51.326;12.070;2023-04-29T08:12:55;100456.78;;;13.23;76.21
77333;BME280;66408;51.326;12.070;2023-04-29T08:15:22;100455.34;;;13.26;75.89
77333;BME280;66408;51.326;12.070;2023-04-29T08:17:48;100459.88;;;13.22;76.11
77333;BME280;66408;51.326;12.070;2023-04-29T08:20:15;100467.72;;;13.23;75.88
77333;BME280;66408;51.326;12.070;2023-04-29T08:22:42;100459.50;;;13.23;75.51
77333;BME280;66408;51.326;12.070;2023-04-29T08:25:09;100457.78;;;13.27;75.40
77333;BME280;66408;51.326;12.070;2023-04-29T08:27:36;100464.53;;;13.30;76.17
77333;BME280;66408;51.326;12.070;2023-04-29T08:30:03;100458.56;;;13.37;74.12
77333;BME280;66408;51.326;12.070;2023-04-29T08:32:29;100462.97;;;13.46;74.91
77333;BME280;66408;51.326;12.070;2023-04-29T08:34:56;100465.69;;;13.63;74.24
77333;BME280;66408;51.326;12.070;2023-04-29T08:37:23;100469.22;;;13.90;73.64
77333;BME280;66408;51.326;12.070;2023-04-29T08:39:49;100470.97;;;14.20;72.96
77333;BME280;66408;51.326;12.070;2023-04-29T08:42:20;100477.22;;;14.38;70.89
77333;BME280;66408;51.326;12.070;2023-04-29T08:44:55;100487.03;;;14.39;71.76
77333;BME280;66408;51.326;12.070;2023-04-29T08:47:23;100495.88;;;14.36;70.16
77333;BME280;66408;51.326;12.070;2023-04-29T08:49:50;100488.00;;;14.34;69.79
77333;BME280;66408;51.326;12.070;2023-04-29T08:52:16;100499.28;;;14.42;70.29
77333;BME280;66408;51.326;12.070;2023-04-29T08:54:43;100507.66;;;14.45;70.16
77333;BME280;66408;51.326;12.070;2023-04-29T08:57:10;100512.13;;;14.50;70.40
77333;BME280;66408;51.326;12.070;2023-04-29T08:59:38;100502.81;;;14.51;69.31
77333;BME280;66408;51.326;12.070;2023-04-29T09:02:08;100504.25;;;14.57;68.25
77333;BME280;66408;51.326;12.070;2023-04-29T09:07:22;100526.28;;;14.60;67.19
77333;BME280;66408;51.326;12.070;2023-04-29T09:09:50;100525.00;;;14.58;66.86
77333;BME280;66408;51.326;12.070;2023-04-29T09:12:18;100533.53;;;14.39;67.52
77333;BME280;66408;51.326;12.070;2023-04-29T09:14:44;100523.91;;;13.98;69.04
77333;BME280;66408;51.326;12.070;2023-04-29T09:17:11;100526.47;;;14.03;69.01
77333;BME280;66408;51.326;12.070;2023-04-29T09:19:38;100527.75;;;13.97;69.11
77333;BME280;66408;51.326;12.070;2023-04-29T09:22:05;100532.25;;;13.85;70.16
77333;BME280;66408;51.326;12.070;2023-04-29T09:24:33;100534.19;;;13.93;69.39
77333;BME280;66408;51.326;12.070;2023-04-29T09:27:00;100545.78;;;13.90;69.65
77333;BME280;66408;51.326;12.070;2023-04-29T09:29:30;100553.34;;;13.84;70.05
77333;BME280;66408;51.326;12.070;2023-04-29T09:31:58;100564.09;;;13.81;69.85
77333;BME280;66408;51.326;12.070;2023-04-29T09:34:35;100569.06;;;13.70;69.39
77333;BME280;66408;51.326;12.070;2023-04-29T09:37:23;100576.28;;;13.57;70.19
77333;BME280;66408;51.326;12.070;2023-04-29T09:39:50;100574.34;;;13.58;69.54
77333;BME280;66408;51.326;12.070;2023-04-29T09:42:16;100582.38;;;13.54;69.92
77333;BME280;66408;51.326;12.070;2023-04-29T09:44:43;100589.75;;;13.54;69.62
77333;BME280;66408;51.326;12.070;2023-04-29T09:47:10;100587.50;;;13.47;70.50
77333;BME280;66408;51.326;12.070;2023-04-29T09:49:43;100601.81;;;13.53;71.05
77333;BME280;66408;51.326;12.070;2023-04-29T09:52:13;100601.81;;;13.53;69.50
77333;BME280;66408;51.326;12.070;2023-04-29T09:54:41;100610.47;;;13.46;70.21
77333;BME280;66408;51.326;12.070;2023-04-29T09:57:10;100605.25;;;13.36;70.03
77333;BME280;66408;51.326;12.070;2023-04-29T09:59:38;100614.53;;;13.26;70.31
77333;BME280;66408;51.326;12.070;2023-04-29T10:02:16;100625.53;;;13.13;71.41
77333;BME280;66408;51.326;12.070;2023-04-29T10:04:46;100630.09;;;12.95;72.13
77333;BME280;66408;51.326;12.070;2023-04-29T10:07:16;100623.03;;;12.94;72.15
77333;BME280;66408;51.326;12.070;2023-04-29T10:09:47;100627.69;;;12.93;72.08
77333;BME280;66408;51.326;12.070;2023-04-29T10:12:15;100634.06;;;12.89;72.09
77333;BME280;66408;51.326;12.070;2023-04-29T10:14:44;100631.22;;;12.94;72.27
77333;BME280;66408;51.326;12.070;2023-04-29T10:17:20;100632.00;;;13.17;72.20
77333;BME280;66408;51.326;12.070;2023-04-29T10:20:02;100635.19;;;13.41;71.40
77333;BME280;66408;51.326;12.070;2023-04-29T10:22:49;100633.06;;;13.86;69.92
77333;BME280;66408;51.326;12.070;2023-04-29T10:25:20;100628.50;;;14.21;69.54
77333;BME280;66408;51.326;12.070;2023-04-29T10:27:50;100637.38;;;14.53;67.71
77333;BME280;66408;51.326;12.070;2023-04-29T10:30:19;100641.56;;;14.67;66.00
77333;BME280;66408;51.326;12.070;2023-04-29T10:32:48;100647.84;;;14.42;66.74
77333;BME280;66408;51.326;12.070;2023-04-29T10:35:19;100651.81;;;14.36;66.06
77333;BME280;66408;51.326;12.070;2023-04-29T10:37:48;100653.06;;;14.04;66.46
77333;BME280;66408;51.326;12.070;2023-04-29T10:40:26;100655.47;;;13.97;66.71
77333;BME280;66408;51.326;12.070;2023-04-29T10:42:56;100661.19;;;13.78;68.25
77333;BME280;66408;51.326;12.070;2023-04-29T10:53:18;100655.41;;;13.40;67.97
77333;BME280;66408;51.326;12.070;2023-04-29T10:55:53;100667.97;;;13.41;67.36
77333;BME280;66408;51.326;12.070;2023-04-29T10:58:43;100673.91;;;13.43;67.93
77333;BME280;66408;51.326;12.070;2023-04-29T11:01:14;100673.91;;;13.43;68.26
77333;BME280;66408;51.326;12.070;2023-04-29T11:03:55;100669.75;;;13.46;68.65
77333;BME280;66408;51.326;12.070;2023-04-29T11:06:38;100667.84;;;13.46;68.41
77333;BME280;66408;51.326;12.070;2023-04-29T11:14:11;100679.53;;;13.78;68.07
77333;BME280;66408;51.326;12.070;2023-04-29T11:16:46;100673.72;;;13.71;67.33
77333;BME280;66408;51.326;12.070;2023-04-29T11:19:16;100686.63;;;13.48;67.50
77333;BME280;66408;51.326;12.070;2023-04-29T11:21:44;100688.19;;;13.40;67.46
77333;BME280;66408;51.326;12.070;2023-04-29T11:24:13;100689.94;;;13.36;66.58
77333;BME280;66408;51.326;12.070;2023-04-29T11:26:41;100683.84;;;13.39;67.65
77333;BME280;66408;51.326;12.070;2023-04-29T11:29:09;100693.53;;;13.45;66.79
77333;BME280;66408;51.326;12.070;2023-04-29T11:31:36;100698.09;;;13.58;66.87
77333;BME280;66408;51.326;12.070;2023-04-29T11:34:05;100697.31;;;13.66;66.57
77333;BME280;66408;51.326;12.070;2023-04-29T11:36:33;100692.41;;;13.86;66.69
77333;BME280;66408;51.326;12.070;2023-04-29T11:39:01;100690.84;;;14.02;66.15
77333;BME280;66408;51.326;12.070;2023-04-29T11:41:29;100694.59;;;14.15;66.10
77333;BME280;66408;51.326;12.070;2023-04-29T11:43:58;100693.16;;;14.17;66.56
77333;BME280;66408;51.326;12.070;2023-04-29T11:46:25;100696.25;;;14.33;66.40
77333;BME280;66408;51.326;12.070;2023-04-29T11:48:56;100707.72;;;14.44;64.81
77333;BME280;66408;51.326;12.070;2023-04-29T11:51:24;100711.91;;;14.58;63.66
77333;BME280;66408;51.326;12.070;2023-04-29T11:53:51;100703.22;;;14.65;62.75
77333;BME280;66408;51.326;12.070;2023-04-29T11:56:20;100705.63;;;14.75;62.39
77333;BME280;66408;51.326;12.070;2023-04-29T11:58:55;100718.03;;;14.90;62.84
77333;BME280;66408;51.326;12.070;2023-04-29T12:01:22;100718.50;;;14.92;61.39
77333;BME280;66408;51.326;12.070;2023-04-29T12:03:49;100718.69;;;14.95;62.68
77333;BME280;66408;51.326;12.070;2023-04-29T12:06:16;100722.06;;;14.92;62.83
77333;BME280;66408;51.326;12.070;2023-04-29T12:08:45;100720.91;;;14.76;62.88
77333;BME280;66408;51.326;12.070;2023-04-29T12:11:12;100730.72;;;14.60;63.84
77333;BME280;66408;51.326;12.070;2023-04-29T12:13:39;100725.25;;;14.43;63.75
77333;BME280;66408;51.326;12.070;2023-04-29T12:16:06;100733.63;;;14.46;64.17
77333;BME280;66408;51.326;12.070;2023-04-29T12:18:33;100734.59;;;14.50;64.46
77333;BME280;66408;51.326;12.070;2023-04-29T12:21:01;100729.94;;;14.68;64.09
77333;BME280;66408;51.326;12.070;2023-04-29T12:23:28;100729.44;;;15.26;62.85
77333;BME280;66408;51.326;12.070;2023-04-29T12:25:57;100734.59;;;15.92;60.31
77333;BME280;66408;51.326;12.070;2023-04-29T12:28:25;100729.81;;;16.39;59.33
77333;BME280;66408;51.326;12.070;2023-04-29T12:30:53;100735.53;;;16.55;58.23
77333;BME280;66408;51.326;12.070;2023-04-29T12:33:25;100745.53;;;16.30;57.67
77333;BME280;66408;51.326;12.070;2023-04-29T12:35:56;100748.53;;;16.07;58.06
77333;BME280;66408;51.326;12.070;2023-04-29T12:38:28;100743.94;;;15.91;59.03
77333;BME280;66408;51.326;12.070;2023-04-29T12:40:57;100749.34;;;15.61;59.43
77333;BME280;66408;51.326;12.070;2023-04-29T12:43:25;100750.34;;;15.57;58.44
77333;BME280;66408;51.326;12.070;2023-04-29T12:45:59;100760.97;;;15.58;60.00
77333;BME280;66408;51.326;12.070;2023-04-29T12:48:31;100750.34;;;15.57;59.74
77333;BME280;66408;51.326;12.070;2023-04-29T12:51:00;100754.00;;;15.78;58.59
77333;BME280;66408;51.326;12.070;2023-04-29T12:53:30;100755.69;;;16.00;57.81
77333;BME280;66408;51.326;12.070;2023-04-29T12:55:57;100758.72;;;16.07;58.60
77333;BME280;66408;51.326;12.070;2023-04-29T12:58:30;100755.50;;;16.05;57.92
77333;BME280;66408;51.326;12.070;2023-04-29T13:00:58;100753.78;;;15.92;58.61
77333;BME280;66408;51.326;12.070;2023-04-29T13:03:25;100754.81;;;15.78;58.40
77333;BME280;66408;51.326;12.070;2023-04-29T13:05:52;100754.69;;;15.49;57.89
77333;BME280;66408;51.326;12.070;2023-04-29T13:08:20;100755.66;;;15.36;58.21
77333;BME280;66408;51.326;12.070;2023-04-29T13:10:46;100758.28;;;15.32;59.05
77333;BME280;66408;51.326;12.070;2023-04-29T13:13:13;100762.94;;;15.32;60.59
77333;BME280;66408;51.326;12.070;2023-04-29T13:15:40;100760.03;;;15.37;59.94